CFG5PM GCRR-EDDF
Flight info
| Callsign | CFG5PM |
|---|---|
| Flight time | 3h 39m |
| Altitude | 34000 |
| Route | DESUM DCT AKUDA DCT ELVAR DCT BARDI DCT ZMR DCT NUBLO DCT RONSI DCT DELOG DCT PEXOD DCT DIDIG DCT ARDOD DCT OBATO UM163 TSU DCT OQQAL DCT RANUX/N0449F330 DCT VALEK DCT LUTAX DCT DIK T856 NIVNU T847 IMCOM IMCOM1D |
| Aircraft | A321/M-SDE2E3FGHIJ1RWXYZ/LB1 |
Departure
| Time | 2026-04-07 13:37 |
|---|---|
| Airport | César Manrique-Lanzarote Airport (GCRR) |
Arrival
| Time | 2026-04-07 17:16 |
|---|---|
| Airport | Frankfurt Main Airport (EDDF) |
| Time | Latitude | Longitude | Altitude | Speed | Heading |
|---|---|---|---|---|---|
| 2026-04-07 12:46 | 28.95055 | -13.60722 | 49 ft | 0 kts | 296° |
| 2026-04-07 13:29 | 28.95053 | -13.60718 | 50 ft | 3 kts | 296° |
| 2026-04-07 13:29 | 28.95041 | -13.60691 | 50 ft | 4 kts | 296° |
| 2026-04-07 13:30 | 28.95033 | -13.60664 | 48 ft | 4 kts | 268° |
| 2026-04-07 13:30 | 28.95039 | -13.60635 | 47 ft | 4 kts | 239° |
| 2026-04-07 13:30 | 28.95056 | -13.60612 | 47 ft | 4 kts | 210° |
| 2026-04-07 13:30 | 28.95060 | -13.60610 | 45 ft | 0 kts | 206° |
| 2026-04-07 13:32 | 28.95034 | -13.60624 | 47 ft | 7 kts | 206° |
| 2026-04-07 13:32 | 28.94968 | -13.60660 | 49 ft | 13 kts | 203° |
| 2026-04-07 13:33 | 28.94902 | -13.60645 | 48 ft | 9 kts | 134° |
| 2026-04-07 13:33 | 28.94818 | -13.60578 | 47 ft | 12 kts | 196° |
| 2026-04-07 13:33 | 28.94721 | -13.60629 | 50 ft | 19 kts | 206° |
| 2026-04-07 13:34 | 28.94583 | -13.60708 | 42 ft | 24 kts | 207° |
| 2026-04-07 13:34 | 28.94421 | -13.60802 | 31 ft | 27 kts | 207° |
| 2026-04-07 13:34 | 28.94252 | -13.60901 | 28 ft | 27 kts | 207° |
| 2026-04-07 13:34 | 28.94085 | -13.60997 | 30 ft | 26 kts | 207° |
| 2026-04-07 13:35 | 28.93924 | -13.61090 | 24 ft | 26 kts | 206° |
| 2026-04-07 13:35 | 28.93768 | -13.61180 | 23 ft | 24 kts | 207° |
| 2026-04-07 13:35 | 28.93652 | -13.61199 | 23 ft | 14 kts | 138° |
| 2026-04-07 13:35 | 28.93607 | -13.61110 | 23 ft | 12 kts | 117° |
| 2026-04-07 13:36 | 28.93632 | -13.61050 | 24 ft | 10 kts | 34° |
| 2026-04-07 13:36 | 28.93803 | -13.60954 | 26 ft | 60 kts | 27° |
| 2026-04-07 13:36 | 28.94383 | -13.60619 | 32 ft | 125 kts | 27° |
| 2026-04-07 13:36 | 28.95314 | -13.60088 | 107 ft | 168 kts | 26° |
| 2026-04-07 13:37 | 28.96295 | -13.59420 | 793 ft | 165 kts | 29° |
| 2026-04-07 13:37 | 28.97225 | -13.58643 | 1401 ft | 165 kts | 32° |
| 2026-04-07 13:37 | 28.98176 | -13.57819 | 1645 ft | 181 kts | 34° |
| 2026-04-07 13:37 | 28.99235 | -13.56904 | 1777 ft | 200 kts | 33° |
| 2026-04-07 13:38 | 29.00398 | -13.55903 | 1912 ft | 219 kts | 34° |
| 2026-04-07 13:38 | 29.01564 | -13.54640 | 2042 ft | 244 kts | 44° |
| 2026-04-07 13:38 | 29.02684 | -13.53103 | 2521 ft | 257 kts | 49° |
| 2026-04-07 13:38 | 29.03789 | -13.51479 | 3213 ft | 261 kts | 49° |
| 2026-04-07 13:39 | 29.04907 | -13.49826 | 3877 ft | 265 kts | 50° |
| 2026-04-07 13:39 | 29.06052 | -13.48153 | 4527 ft | 270 kts | 49° |
| 2026-04-07 13:39 | 29.07228 | -13.46457 | 5155 ft | 274 kts | 49° |
| 2026-04-07 13:39 | 29.08431 | -13.44742 | 5744 ft | 279 kts | 49° |
| 2026-04-07 13:40 | 29.09733 | -13.43083 | 6327 ft | 282 kts | 35° |
| 2026-04-07 13:40 | 29.11469 | -13.42095 | 6870 ft | 280 kts | 9° |
| 2026-04-07 13:40 | 29.13400 | -13.42011 | 7421 ft | 279 kts | 348° |
| 2026-04-07 13:40 | 29.15326 | -13.42354 | 8018 ft | 282 kts | 348° |
| 2026-04-07 13:41 | 29.17277 | -13.42697 | 8608 ft | 285 kts | 347° |
| 2026-04-07 13:41 | 29.19252 | -13.43037 | 9205 ft | 289 kts | 347° |
| 2026-04-07 13:41 | 29.21253 | -13.43376 | 9803 ft | 293 kts | 347° |
| 2026-04-07 13:41 | 29.23255 | -13.43715 | 10340 ft | 297 kts | 347° |
| 2026-04-07 13:42 | 29.25354 | -13.44078 | 10519 ft | 315 kts | 347° |
| 2026-04-07 13:42 | 29.27585 | -13.44465 | 10644 ft | 333 kts | 347° |
| 2026-04-07 13:42 | 29.29941 | -13.44870 | 10766 ft | 351 kts | 347° |
| 2026-04-07 13:42 | 29.32415 | -13.45289 | 10892 ft | 367 kts | 348° |
| 2026-04-07 13:43 | 29.34974 | -13.45718 | 11257 ft | 375 kts | 348° |
| 2026-04-07 13:43 | 29.37568 | -13.46145 | 11770 ft | 378 kts | 348° |
| 2026-04-07 13:43 | 29.40180 | -13.46576 | 12309 ft | 381 kts | 347° |
| 2026-04-07 13:43 | 29.42817 | -13.46968 | 12855 ft | 385 kts | 352° |
| 2026-04-07 13:44 | 29.45520 | -13.46901 | 13386 ft | 393 kts | 2° |
| 2026-04-07 13:44 | 29.48237 | -13.46474 | 13919 ft | 396 kts | 4° |
| 2026-04-07 13:44 | 29.50973 | -13.46033 | 14398 ft | 398 kts | 4° |
| 2026-04-07 13:44 | 29.53718 | -13.45591 | 14862 ft | 400 kts | 3° |
| 2026-04-07 13:45 | 29.56480 | -13.45145 | 15320 ft | 402 kts | 3° |
| 2026-04-07 13:45 | 29.59252 | -13.44698 | 15775 ft | 403 kts | 3° |
| 2026-04-07 13:45 | 29.62038 | -13.44252 | 16227 ft | 405 kts | 3° |
| 2026-04-07 13:45 | 29.64837 | -13.43807 | 16668 ft | 407 kts | 3° |
| 2026-04-07 13:46 | 29.67648 | -13.43359 | 17106 ft | 409 kts | 3° |
| 2026-04-07 13:46 | 29.70470 | -13.42907 | 17543 ft | 411 kts | 3° |
| 2026-04-07 13:46 | 29.73305 | -13.42451 | 17997 ft | 413 kts | 2° |
| 2026-04-07 13:46 | 29.76157 | -13.41992 | 18433 ft | 415 kts | 2° |
| 2026-04-07 13:47 | 29.78981 | -13.41542 | 18792 ft | 416 kts | 2° |
| 2026-04-07 13:47 | 29.81857 | -13.41084 | 19169 ft | 418 kts | 2° |
| 2026-04-07 13:47 | 29.84739 | -13.40621 | 19551 ft | 419 kts | 2° |
| 2026-04-07 13:47 | 29.87628 | -13.40155 | 19929 ft | 420 kts | 2° |
| 2026-04-07 13:48 | 29.90524 | -13.39687 | 20311 ft | 421 kts | 2° |
| 2026-04-07 13:48 | 29.93428 | -13.39218 | 20690 ft | 422 kts | 2° |
| 2026-04-07 13:48 | 29.96335 | -13.38747 | 21069 ft | 423 kts | 2° |
| 2026-04-07 13:48 | 29.99251 | -13.38278 | 21450 ft | 424 kts | 2° |
| 2026-04-07 13:49 | 30.02173 | -13.37809 | 21820 ft | 425 kts | 2° |
| 2026-04-07 13:49 | 30.05104 | -13.37339 | 22187 ft | 426 kts | 2° |
| 2026-04-07 13:49 | 30.08040 | -13.36867 | 22556 ft | 427 kts | 2° |
| 2026-04-07 13:49 | 30.10985 | -13.36391 | 22915 ft | 428 kts | 2° |
| 2026-04-07 13:50 | 30.13936 | -13.35912 | 23269 ft | 429 kts | 2° |
| 2026-04-07 13:50 | 30.16896 | -13.35433 | 23618 ft | 430 kts | 2° |
| 2026-04-07 13:50 | 30.19865 | -13.34952 | 23925 ft | 431 kts | 2° |
| 2026-04-07 13:50 | 30.22840 | -13.34469 | 24207 ft | 433 kts | 2° |
| 2026-04-07 13:51 | 30.25825 | -13.33982 | 24485 ft | 434 kts | 2° |
| 2026-04-07 13:51 | 30.28820 | -13.33494 | 24779 ft | 435 kts | 2° |
| 2026-04-07 13:51 | 30.31827 | -13.33007 | 25039 ft | 437 kts | 2° |
| 2026-04-07 13:51 | 30.34842 | -13.32518 | 25299 ft | 438 kts | 2° |
| 2026-04-07 13:52 | 30.37866 | -13.32028 | 25551 ft | 440 kts | 2° |
| 2026-04-07 13:52 | 30.40879 | -13.31306 | 25789 ft | 449 kts | 14° |
| 2026-04-07 13:52 | 30.43668 | -13.29562 | 26009 ft | 466 kts | 32° |
| 2026-04-07 13:52 | 30.46150 | -13.27105 | 26221 ft | 469 kts | 33° |
| 2026-04-07 13:53 | 30.48785 | -13.24909 | 26449 ft | 466 kts | 28° |
| 2026-04-07 13:53 | 30.51482 | -13.22818 | 26685 ft | 467 kts | 27° |
| 2026-04-07 13:53 | 30.54204 | -13.20752 | 26925 ft | 468 kts | 26° |
| 2026-04-07 13:53 | 30.56948 | -13.18716 | 27183 ft | 469 kts | 26° |
| 2026-04-07 13:54 | 30.59715 | -13.16700 | 27435 ft | 470 kts | 25° |
| 2026-04-07 13:54 | 30.62485 | -13.14698 | 27765 ft | 468 kts | 25° |
| 2026-04-07 13:54 | 30.65250 | -13.12700 | 28125 ft | 468 kts | 25° |
| 2026-04-07 13:54 | 30.68007 | -13.10698 | 28432 ft | 468 kts | 25° |
| 2026-04-07 13:55 | 30.70725 | -13.08715 | 28739 ft | 467 kts | 25° |
| 2026-04-07 13:55 | 30.73471 | -13.06704 | 29051 ft | 466 kts | 25° |
| 2026-04-07 13:55 | 30.76212 | -13.04691 | 29379 ft | 466 kts | 25° |
| 2026-04-07 13:55 | 30.78950 | -13.02682 | 29690 ft | 465 kts | 25° |
| 2026-04-07 13:56 | 30.81683 | -13.00678 | 30003 ft | 464 kts | 25° |
| 2026-04-07 13:56 | 30.84412 | -12.98673 | 30300 ft | 463 kts | 25° |
| 2026-04-07 13:56 | 30.87135 | -12.96670 | 30580 ft | 463 kts | 24° |
| 2026-04-07 13:56 | 30.89855 | -12.94664 | 30825 ft | 463 kts | 24° |
| 2026-04-07 13:57 | 30.92571 | -12.92662 | 31075 ft | 462 kts | 24° |
| 2026-04-07 13:57 | 30.95283 | -12.90658 | 31334 ft | 461 kts | 24° |
| 2026-04-07 13:57 | 30.97989 | -12.88662 | 31600 ft | 460 kts | 24° |
| 2026-04-07 13:57 | 31.00692 | -12.86671 | 31875 ft | 459 kts | 24° |
| 2026-04-07 13:58 | 31.03389 | -12.84682 | 32146 ft | 458 kts | 24° |
| 2026-04-07 13:58 | 31.06078 | -12.82701 | 32420 ft | 457 kts | 24° |
| 2026-04-07 13:58 | 31.08762 | -12.80723 | 32692 ft | 456 kts | 24° |
| 2026-04-07 13:58 | 31.11439 | -12.78746 | 32963 ft | 455 kts | 24° |
| 2026-04-07 13:59 | 31.14109 | -12.76769 | 33252 ft | 454 kts | 24° |
| 2026-04-07 13:59 | 31.16776 | -12.74790 | 33515 ft | 454 kts | 23° |
| 2026-04-07 13:59 | 31.19444 | -12.72809 | 33707 ft | 455 kts | 23° |
| 2026-04-07 13:59 | 31.22113 | -12.70832 | 33915 ft | 455 kts | 23° |
| 2026-04-07 14:00 | 31.24785 | -12.68854 | 34130 ft | 455 kts | 23° |
| 2026-04-07 14:00 | 31.27458 | -12.66874 | 34200 ft | 455 kts | 23° |
| 2026-04-07 14:00 | 31.32770 | -12.62931 | 34214 ft | 455 kts | 23° |
| 2026-04-07 14:01 | 31.38111 | -12.58956 | 34199 ft | 455 kts | 23° |
| 2026-04-07 14:01 | 31.43450 | -12.54972 | 34204 ft | 455 kts | 23° |
| 2026-04-07 14:02 | 31.48795 | -12.50974 | 34189 ft | 456 kts | 22° |
| 2026-04-07 14:02 | 31.54153 | -12.46973 | 34193 ft | 457 kts | 22° |
| 2026-04-07 14:03 | 31.59517 | -12.42962 | 34196 ft | 458 kts | 22° |
| 2026-04-07 14:03 | 31.64885 | -12.38942 | 34197 ft | 458 kts | 22° |
| 2026-04-07 14:04 | 31.70257 | -12.34911 | 34199 ft | 458 kts | 22° |
| 2026-04-07 14:04 | 31.75633 | -12.30875 | 34238 ft | 459 kts | 23° |
| 2026-04-07 14:05 | 31.81017 | -12.26817 | 34213 ft | 460 kts | 23° |
| 2026-04-07 14:05 | 31.86412 | -12.22746 | 34202 ft | 461 kts | 23° |
| 2026-04-07 14:06 | 31.91815 | -12.18670 | 34197 ft | 462 kts | 23° |
| 2026-04-07 14:06 | 31.97219 | -12.14576 | 34197 ft | 462 kts | 23° |
| 2026-04-07 14:07 | 32.02630 | -12.10486 | 34201 ft | 462 kts | 23° |
| 2026-04-07 14:07 | 32.08007 | -12.06416 | 34221 ft | 463 kts | 23° |
| 2026-04-07 14:08 | 32.13426 | -12.02301 | 34224 ft | 464 kts | 23° |
| 2026-04-07 14:08 | 32.18855 | -11.98168 | 34206 ft | 465 kts | 23° |
| 2026-04-07 14:09 | 32.24290 | -11.94031 | 34212 ft | 465 kts | 23° |
| 2026-04-07 14:09 | 32.29731 | -11.89892 | 34195 ft | 465 kts | 23° |
| 2026-04-07 14:10 | 32.35176 | -11.85740 | 34226 ft | 466 kts | 23° |
| 2026-04-07 14:10 | 32.40622 | -11.81574 | 34213 ft | 466 kts | 24° |
| 2026-04-07 14:11 | 32.46067 | -11.77409 | 34205 ft | 466 kts | 23° |
| 2026-04-07 14:11 | 32.50595 | -11.73944 | 34199 ft | 466 kts | 24° |
| 2026-04-07 14:12 | 32.56037 | -11.69753 | 34194 ft | 466 kts | 24° |
| 2026-04-07 14:12 | 32.61481 | -11.65565 | 34253 ft | 466 kts | 24° |
| 2026-04-07 14:13 | 32.66898 | -11.61386 | 34182 ft | 463 kts | 23° |
| 2026-04-07 14:13 | 32.72303 | -11.57220 | 34173 ft | 463 kts | 23° |
| 2026-04-07 14:14 | 32.77712 | -11.53046 | 34171 ft | 464 kts | 23° |
| 2026-04-07 14:14 | 32.83124 | -11.48865 | 34175 ft | 464 kts | 23° |
| 2026-04-07 14:15 | 32.88536 | -11.44670 | 34179 ft | 464 kts | 23° |
| 2026-04-07 14:15 | 32.93949 | -11.40475 | 34184 ft | 464 kts | 23° |
| 2026-04-07 14:16 | 32.99364 | -11.36276 | 34186 ft | 464 kts | 23° |
| 2026-04-07 14:16 | 33.04773 | -11.32066 | 34193 ft | 464 kts | 23° |
| 2026-04-07 14:17 | 33.10187 | -11.27851 | 34172 ft | 465 kts | 24° |
| 2026-04-07 14:17 | 33.15613 | -11.23618 | 34169 ft | 466 kts | 24° |
| 2026-04-07 14:18 | 33.21051 | -11.19360 | 34184 ft | 468 kts | 23° |
| 2026-04-07 14:18 | 33.26498 | -11.15084 | 34168 ft | 469 kts | 23° |
| 2026-04-07 14:19 | 33.31923 | -11.10836 | 34164 ft | 469 kts | 23° |
| 2026-04-07 14:19 | 33.37386 | -11.06551 | 34174 ft | 470 kts | 23° |
| 2026-04-07 14:20 | 33.42855 | -11.02249 | 34178 ft | 470 kts | 23° |
| 2026-04-07 14:20 | 33.48325 | -10.97944 | 34200 ft | 471 kts | 23° |
| 2026-04-07 14:21 | 33.53805 | -10.93631 | 34184 ft | 472 kts | 24° |
| 2026-04-07 14:21 | 33.59301 | -10.89285 | 34151 ft | 474 kts | 24° |
| 2026-04-07 14:22 | 33.64820 | -10.84911 | 34144 ft | 476 kts | 24° |
| 2026-04-07 14:22 | 33.70360 | -10.80527 | 34146 ft | 477 kts | 24° |
| 2026-04-07 14:23 | 33.75909 | -10.76132 | 34192 ft | 478 kts | 24° |
| 2026-04-07 14:23 | 33.81473 | -10.71714 | 34148 ft | 480 kts | 25° |
| 2026-04-07 14:24 | 33.87048 | -10.67268 | 34143 ft | 481 kts | 25° |
| 2026-04-07 14:24 | 33.92632 | -10.62804 | 34144 ft | 482 kts | 25° |
| 2026-04-07 14:25 | 33.98224 | -10.58336 | 34147 ft | 482 kts | 25° |
| 2026-04-07 14:25 | 34.03792 | -10.53897 | 34179 ft | 485 kts | 25° |
| 2026-04-07 14:26 | 34.09442 | -10.49382 | 34142 ft | 488 kts | 26° |
| 2026-04-07 14:26 | 34.15109 | -10.44839 | 34139 ft | 490 kts | 26° |
| 2026-04-07 14:27 | 34.20783 | -10.40271 | 34136 ft | 490 kts | 26° |
| 2026-04-07 14:27 | 34.26458 | -10.35686 | 34139 ft | 491 kts | 26° |
| 2026-04-07 14:28 | 34.32145 | -10.31104 | 34168 ft | 492 kts | 26° |
| 2026-04-07 14:28 | 34.37843 | -10.26503 | 34135 ft | 493 kts | 26° |
| 2026-04-07 14:29 | 34.43560 | -10.21875 | 34128 ft | 495 kts | 26° |
| 2026-04-07 14:29 | 34.49284 | -10.17227 | 34107 ft | 496 kts | 27° |
| 2026-04-07 14:30 | 34.55019 | -10.12573 | 34114 ft | 496 kts | 27° |
| 2026-04-07 14:30 | 34.60768 | -10.07907 | 34150 ft | 498 kts | 27° |
| 2026-04-07 14:31 | 34.66535 | -10.03218 | 34117 ft | 500 kts | 27° |
| 2026-04-07 14:31 | 34.72313 | -9.98503 | 34114 ft | 501 kts | 27° |
| 2026-04-07 14:32 | 34.78059 | -9.93792 | 34115 ft | 502 kts | 27° |
| 2026-04-07 14:32 | 34.83846 | -9.89038 | 34119 ft | 502 kts | 27° |
| 2026-04-07 14:33 | 34.89657 | -9.84276 | 34110 ft | 504 kts | 28° |
| 2026-04-07 14:33 | 34.95486 | -9.79504 | 34108 ft | 507 kts | 28° |
| 2026-04-07 14:34 | 35.01342 | -9.74699 | 34124 ft | 507 kts | 29° |
| 2026-04-07 14:34 | 35.07189 | -9.69873 | 34123 ft | 507 kts | 29° |
| 2026-04-07 14:35 | 35.13029 | -9.65031 | 34158 ft | 508 kts | 30° |
| 2026-04-07 14:35 | 35.18878 | -9.60187 | 34095 ft | 507 kts | 30° |
| 2026-04-07 14:36 | 35.24727 | -9.55341 | 34090 ft | 508 kts | 30° |
| 2026-04-07 14:36 | 35.30583 | -9.50477 | 34093 ft | 509 kts | 30° |
| 2026-04-07 14:37 | 35.36448 | -9.45609 | 34052 ft | 509 kts | 30° |
| 2026-04-07 14:37 | 35.42315 | -9.40719 | 34138 ft | 511 kts | 31° |
| 2026-04-07 14:38 | 35.48153 | -9.35839 | 34129 ft | 512 kts | 31° |
| 2026-04-07 14:38 | 35.54036 | -9.30919 | 34115 ft | 512 kts | 31° |
| 2026-04-07 14:39 | 35.62864 | -9.23514 | 34107 ft | 512 kts | 31° |
| 2026-04-07 14:40 | 35.68745 | -9.18573 | 34091 ft | 512 kts | 31° |
| 2026-04-07 14:40 | 35.74632 | -9.13626 | 34104 ft | 512 kts | 31° |
| 2026-04-07 14:41 | 35.80518 | -9.08663 | 34064 ft | 513 kts | 32° |
| 2026-04-07 14:41 | 35.86397 | -9.03691 | 34082 ft | 512 kts | 32° |
| 2026-04-07 14:42 | 35.92274 | -8.98715 | 34126 ft | 512 kts | 33° |
| 2026-04-07 14:42 | 35.98339 | -8.94149 | 34108 ft | 509 kts | 21° |
| 2026-04-07 14:43 | 36.04898 | -8.90805 | 34058 ft | 512 kts | 19° |
| 2026-04-07 14:43 | 36.11509 | -8.87464 | 34060 ft | 515 kts | 19° |
| 2026-04-07 14:44 | 36.18113 | -8.84108 | 34101 ft | 517 kts | 20° |
| 2026-04-07 14:44 | 36.24785 | -8.80704 | 34078 ft | 519 kts | 20° |
| 2026-04-07 14:45 | 36.31475 | -8.77281 | 34074 ft | 521 kts | 20° |
| 2026-04-07 14:45 | 36.38176 | -8.73843 | 34075 ft | 522 kts | 20° |
| 2026-04-07 14:46 | 36.44889 | -8.70401 | 34070 ft | 522 kts | 21° |
| 2026-04-07 14:46 | 36.51607 | -8.66949 | 34068 ft | 523 kts | 21° |
| 2026-04-07 14:47 | 36.58334 | -8.63487 | 34073 ft | 524 kts | 21° |
| 2026-04-07 14:47 | 36.65067 | -8.60016 | 34074 ft | 524 kts | 21° |
| 2026-04-07 14:48 | 36.71808 | -8.56542 | 34096 ft | 524 kts | 22° |
| 2026-04-07 14:48 | 36.78547 | -8.53051 | 34085 ft | 525 kts | 22° |
| 2026-04-07 14:49 | 36.85292 | -8.49545 | 34080 ft | 525 kts | 22° |
| 2026-04-07 14:49 | 36.92039 | -8.46040 | 34082 ft | 525 kts | 22° |
| 2026-04-07 14:50 | 36.98757 | -8.42542 | 34096 ft | 526 kts | 22° |
| 2026-04-07 14:50 | 37.05517 | -8.39014 | 34081 ft | 527 kts | 22° |
| 2026-04-07 14:51 | 37.12283 | -8.35481 | 34076 ft | 527 kts | 22° |
| 2026-04-07 14:51 | 37.19047 | -8.31942 | 34052 ft | 527 kts | 23° |
| 2026-04-07 14:52 | 37.25814 | -8.28395 | 34063 ft | 527 kts | 23° |
| 2026-04-07 14:52 | 37.32580 | -8.24837 | 34068 ft | 527 kts | 24° |
| 2026-04-07 14:53 | 37.39342 | -8.21272 | 34073 ft | 527 kts | 24° |
| 2026-04-07 14:53 | 37.46101 | -8.17702 | 34081 ft | 527 kts | 24° |
| 2026-04-07 14:54 | 37.52863 | -8.14127 | 34078 ft | 527 kts | 24° |
| 2026-04-07 14:54 | 37.59622 | -8.10543 | 34067 ft | 527 kts | 24° |
| 2026-04-07 14:55 | 37.66380 | -8.06955 | 34061 ft | 527 kts | 24° |
| 2026-04-07 14:55 | 37.73144 | -8.03353 | 34067 ft | 527 kts | 25° |
| 2026-04-07 14:56 | 37.79905 | -7.99742 | 34062 ft | 527 kts | 25° |
| 2026-04-07 14:56 | 37.86666 | -7.96137 | 34057 ft | 528 kts | 24° |
| 2026-04-07 14:57 | 37.93430 | -7.92520 | 34059 ft | 528 kts | 25° |
| 2026-04-07 14:57 | 38.00142 | -7.88923 | 34076 ft | 527 kts | 25° |
| 2026-04-07 14:58 | 38.06898 | -7.85290 | 34075 ft | 527 kts | 25° |
| 2026-04-07 14:58 | 38.13650 | -7.81651 | 34072 ft | 527 kts | 25° |
| 2026-04-07 14:59 | 38.20401 | -7.78017 | 34066 ft | 527 kts | 25° |
| 2026-04-07 14:59 | 38.27149 | -7.74370 | 34057 ft | 527 kts | 25° |
| 2026-04-07 15:00 | 38.33895 | -7.70715 | 34049 ft | 527 kts | 25° |
| 2026-04-07 15:00 | 38.40638 | -7.67049 | 34050 ft | 527 kts | 25° |
| 2026-04-07 15:01 | 38.47379 | -7.63376 | 34055 ft | 527 kts | 26° |
| 2026-04-07 15:01 | 38.54115 | -7.59707 | 34004 ft | 526 kts | 26° |
| 2026-04-07 15:02 | 38.60838 | -7.56039 | 34027 ft | 525 kts | 26° |
| 2026-04-07 15:02 | 38.67546 | -7.52364 | 34036 ft | 524 kts | 26° |
| 2026-04-07 15:03 | 38.73111 | -7.49311 | 34037 ft | 523 kts | 26° |
| 2026-04-07 15:03 | 38.79803 | -7.45639 | 34038 ft | 523 kts | 26° |
| 2026-04-07 15:04 | 38.86481 | -7.41970 | 34033 ft | 522 kts | 26° |
| 2026-04-07 15:04 | 38.93151 | -7.38290 | 34036 ft | 522 kts | 27° |
| 2026-04-07 15:05 | 38.99815 | -7.34606 | 34028 ft | 521 kts | 27° |
| 2026-04-07 15:05 | 39.06478 | -7.30912 | 34026 ft | 521 kts | 27° |
| 2026-04-07 15:06 | 39.13137 | -7.27213 | 34024 ft | 521 kts | 27° |
| 2026-04-07 15:06 | 39.19798 | -7.23516 | 34021 ft | 521 kts | 27° |
| 2026-04-07 15:07 | 39.26373 | -7.19645 | 33979 ft | 518 kts | 31° |
| 2026-04-07 15:07 | 39.32745 | -7.15360 | 34002 ft | 515 kts | 33° |
| 2026-04-07 15:08 | 39.39017 | -7.11013 | 34004 ft | 515 kts | 33° |
| 2026-04-07 15:08 | 39.45378 | -7.06736 | 34007 ft | 515 kts | 32° |
| 2026-04-07 15:09 | 39.51768 | -7.02536 | 34007 ft | 515 kts | 32° |
| 2026-04-07 15:09 | 39.58139 | -6.98312 | 33992 ft | 514 kts | 32° |
| 2026-04-07 15:10 | 39.64495 | -6.94050 | 33992 ft | 514 kts | 33° |
| 2026-04-07 15:10 | 39.70849 | -6.89782 | 33984 ft | 514 kts | 33° |
| 2026-04-07 15:11 | 39.77204 | -6.85514 | 33983 ft | 514 kts | 33° |
| 2026-04-07 15:11 | 39.83547 | -6.81244 | 33965 ft | 512 kts | 32° |
| 2026-04-07 15:12 | 39.89876 | -6.76989 | 33984 ft | 512 kts | 32° |
| 2026-04-07 15:12 | 39.96191 | -6.72718 | 33987 ft | 511 kts | 33° |
| 2026-04-07 15:13 | 40.02498 | -6.68439 | 33990 ft | 511 kts | 32° |
| 2026-04-07 15:13 | 40.08807 | -6.64171 | 33982 ft | 511 kts | 32° |
| 2026-04-07 15:14 | 40.15111 | -6.59885 | 33982 ft | 511 kts | 32° |
| 2026-04-07 15:14 | 40.21403 | -6.55580 | 33981 ft | 511 kts | 33° |
| 2026-04-07 15:15 | 40.27705 | -6.51274 | 33984 ft | 511 kts | 32° |
| 2026-04-07 15:15 | 40.34005 | -6.46968 | 33978 ft | 511 kts | 33° |
| 2026-04-07 15:16 | 40.40280 | -6.42676 | 33973 ft | 514 kts | 32° |
| 2026-04-07 15:16 | 40.46618 | -6.38323 | 33988 ft | 514 kts | 32° |
| 2026-04-07 15:17 | 40.52952 | -6.33958 | 33985 ft | 514 kts | 32° |
| 2026-04-07 15:17 | 40.59281 | -6.29586 | 33986 ft | 514 kts | 32° |
| 2026-04-07 15:18 | 40.65610 | -6.25217 | 33985 ft | 514 kts | 32° |
| 2026-04-07 15:18 | 40.71941 | -6.20853 | 33999 ft | 514 kts | 32° |
| 2026-04-07 15:19 | 40.78266 | -6.16474 | 33993 ft | 513 kts | 32° |
| 2026-04-07 15:19 | 40.84581 | -6.12088 | 33994 ft | 513 kts | 32° |
| 2026-04-07 15:20 | 40.90892 | -6.07695 | 33960 ft | 512 kts | 31° |
| 2026-04-07 15:20 | 40.97181 | -6.03308 | 33996 ft | 510 kts | 31° |
| 2026-04-07 15:21 | 41.03456 | -5.98932 | 34006 ft | 509 kts | 32° |
| 2026-04-07 15:21 | 41.09716 | -5.94547 | 34002 ft | 508 kts | 32° |
| 2026-04-07 15:22 | 41.15966 | -5.90164 | 34006 ft | 508 kts | 32° |
| 2026-04-07 15:22 | 41.22215 | -5.85780 | 34005 ft | 508 kts | 32° |
| 2026-04-07 15:23 | 41.28446 | -5.81388 | 34007 ft | 507 kts | 32° |
| 2026-04-07 15:23 | 41.34665 | -5.76975 | 34014 ft | 506 kts | 32° |
| 2026-04-07 15:24 | 41.40843 | -5.72599 | 34014 ft | 506 kts | 32° |
| 2026-04-07 15:24 | 41.47055 | -5.68194 | 33991 ft | 505 kts | 31° |
| 2026-04-07 15:25 | 41.53273 | -5.63828 | 34005 ft | 506 kts | 27° |
| 2026-04-07 15:25 | 41.59769 | -5.60166 | 34025 ft | 507 kts | 26° |
| 2026-04-07 15:26 | 41.66259 | -5.56509 | 34020 ft | 506 kts | 26° |
| 2026-04-07 15:26 | 41.72731 | -5.52844 | 34027 ft | 504 kts | 26° |
| 2026-04-07 15:27 | 41.79195 | -5.49185 | 34027 ft | 504 kts | 26° |
| 2026-04-07 15:27 | 41.85648 | -5.45534 | 34033 ft | 503 kts | 26° |
| 2026-04-07 15:28 | 41.92090 | -5.41874 | 34030 ft | 502 kts | 26° |
| 2026-04-07 15:28 | 41.98519 | -5.38195 | 34031 ft | 502 kts | 26° |
| 2026-04-07 15:29 | 42.04944 | -5.34514 | 34031 ft | 502 kts | 26° |
| 2026-04-07 15:29 | 42.11366 | -5.30841 | 34029 ft | 501 kts | 25° |
| 2026-04-07 15:30 | 42.17767 | -5.27172 | 34051 ft | 500 kts | 25° |
| 2026-04-07 15:30 | 42.24159 | -5.23497 | 34056 ft | 499 kts | 25° |
| 2026-04-07 15:31 | 42.30535 | -5.19813 | 34049 ft | 498 kts | 26° |
| 2026-04-07 15:31 | 42.36901 | -5.16140 | 34059 ft | 497 kts | 25° |
| 2026-04-07 15:32 | 42.43258 | -5.12471 | 34056 ft | 496 kts | 26° |
| 2026-04-07 15:32 | 42.49563 | -5.08817 | 34054 ft | 496 kts | 26° |
| 2026-04-07 15:33 | 42.55895 | -5.05134 | 34054 ft | 495 kts | 26° |
| 2026-04-07 15:33 | 42.62211 | -5.01433 | 34063 ft | 494 kts | 26° |
| 2026-04-07 15:34 | 42.68523 | -4.97745 | 34066 ft | 493 kts | 25° |
| 2026-04-07 15:34 | 42.74829 | -4.94066 | 34037 ft | 493 kts | 25° |
| 2026-04-07 15:35 | 42.81137 | -4.90374 | 34041 ft | 493 kts | 25° |
| 2026-04-07 15:35 | 42.87438 | -4.86659 | 34045 ft | 494 kts | 25° |
| 2026-04-07 15:36 | 42.93738 | -4.82936 | 34033 ft | 493 kts | 25° |
| 2026-04-07 15:36 | 43.00002 | -4.79243 | 34034 ft | 494 kts | 25° |
| 2026-04-07 15:37 | 43.06307 | -4.75523 | 34030 ft | 494 kts | 25° |
| 2026-04-07 15:37 | 43.12612 | -4.71778 | 34019 ft | 494 kts | 25° |
| 2026-04-07 15:38 | 43.18911 | -4.68024 | 34012 ft | 494 kts | 25° |
| 2026-04-07 15:38 | 43.25216 | -4.64270 | 34012 ft | 494 kts | 25° |
| 2026-04-07 15:39 | 43.31514 | -4.60512 | 33998 ft | 494 kts | 25° |
| 2026-04-07 15:39 | 43.37810 | -4.56734 | 33963 ft | 494 kts | 26° |
| 2026-04-07 15:40 | 43.44118 | -4.52945 | 33961 ft | 495 kts | 26° |
| 2026-04-07 15:40 | 43.50428 | -4.49146 | 33955 ft | 495 kts | 26° |
| 2026-04-07 15:41 | 43.56739 | -4.45348 | 33957 ft | 495 kts | 25° |
| 2026-04-07 15:41 | 43.63044 | -4.41546 | 33967 ft | 494 kts | 25° |
| 2026-04-07 15:42 | 43.69297 | -4.37758 | 33970 ft | 494 kts | 26° |
| 2026-04-07 15:42 | 43.78732 | -4.32029 | 33967 ft | 493 kts | 26° |
| 2026-04-07 15:43 | 43.85012 | -4.28201 | 33975 ft | 493 kts | 26° |
| 2026-04-07 15:43 | 43.91285 | -4.24371 | 33978 ft | 493 kts | 26° |
| 2026-04-07 15:44 | 43.97558 | -4.20536 | 33973 ft | 492 kts | 26° |
| 2026-04-07 15:44 | 44.03816 | -4.16698 | 33981 ft | 491 kts | 26° |
| 2026-04-07 15:45 | 44.10066 | -4.12852 | 33985 ft | 491 kts | 26° |
| 2026-04-07 15:45 | 44.16304 | -4.08990 | 33994 ft | 491 kts | 26° |
| 2026-04-07 15:46 | 44.22545 | -4.05131 | 33979 ft | 491 kts | 26° |
| 2026-04-07 15:46 | 44.28796 | -4.01265 | 33976 ft | 492 kts | 26° |
| 2026-04-07 15:47 | 44.34803 | -3.96910 | 33977 ft | 488 kts | 37° |
| 2026-04-07 15:47 | 44.40393 | -3.91530 | 33976 ft | 488 kts | 37° |
| 2026-04-07 15:48 | 44.45987 | -3.86129 | 33976 ft | 489 kts | 38° |
| 2026-04-07 15:48 | 44.51582 | -3.80708 | 33966 ft | 489 kts | 38° |
| 2026-04-07 15:49 | 44.57181 | -3.75281 | 33974 ft | 489 kts | 38° |
| 2026-04-07 15:49 | 44.62783 | -3.69845 | 33987 ft | 489 kts | 38° |
| 2026-04-07 15:50 | 44.68375 | -3.64399 | 33998 ft | 489 kts | 38° |
| 2026-04-07 15:50 | 44.73966 | -3.58940 | 34011 ft | 489 kts | 38° |
| 2026-04-07 15:51 | 44.79553 | -3.53475 | 34014 ft | 489 kts | 38° |
| 2026-04-07 15:51 | 44.85137 | -3.48001 | 34027 ft | 489 kts | 38° |
| 2026-04-07 15:52 | 44.90714 | -3.42513 | 33993 ft | 489 kts | 38° |
| 2026-04-07 15:52 | 44.96281 | -3.37030 | 34029 ft | 488 kts | 38° |
| 2026-04-07 15:53 | 45.01841 | -3.31548 | 34039 ft | 487 kts | 38° |
| 2026-04-07 15:53 | 45.07386 | -3.26054 | 34043 ft | 486 kts | 39° |
| 2026-04-07 15:54 | 45.12883 | -3.20582 | 34046 ft | 486 kts | 39° |
| 2026-04-07 15:54 | 45.18413 | -3.15070 | 34042 ft | 486 kts | 39° |
| 2026-04-07 15:55 | 45.23948 | -3.09559 | 34045 ft | 486 kts | 39° |
| 2026-04-07 15:55 | 45.29476 | -3.04049 | 34045 ft | 485 kts | 38° |
| 2026-04-07 15:56 | 45.34976 | -2.98505 | 34058 ft | 484 kts | 39° |
| 2026-04-07 15:56 | 45.39501 | -2.93830 | 34064 ft | 483 kts | 39° |
| 2026-04-07 15:57 | 45.44920 | -2.88173 | 34068 ft | 483 kts | 39° |
| 2026-04-07 15:57 | 45.50348 | -2.82530 | 34065 ft | 483 kts | 39° |
| 2026-04-07 15:58 | 45.55787 | -2.76911 | 34072 ft | 483 kts | 39° |
| 2026-04-07 15:58 | 45.61213 | -2.71280 | 34059 ft | 482 kts | 39° |
| 2026-04-07 15:59 | 45.66623 | -2.65640 | 34082 ft | 481 kts | 39° |
| 2026-04-07 15:59 | 45.72013 | -2.59997 | 34084 ft | 480 kts | 39° |
| 2026-04-07 16:00 | 45.77394 | -2.54347 | 34085 ft | 479 kts | 39° |
| 2026-04-07 16:00 | 45.82769 | -2.48700 | 34090 ft | 479 kts | 39° |
| 2026-04-07 16:01 | 45.88145 | -2.43051 | 34089 ft | 479 kts | 39° |
| 2026-04-07 16:01 | 45.93511 | -2.37387 | 34091 ft | 479 kts | 39° |
| 2026-04-07 16:02 | 45.98863 | -2.31705 | 34090 ft | 478 kts | 38° |
| 2026-04-07 16:02 | 46.04209 | -2.26042 | 34095 ft | 477 kts | 37° |
| 2026-04-07 16:03 | 46.09932 | -2.21320 | 34097 ft | 478 kts | 30° |
| 2026-04-07 16:03 | 46.15792 | -2.16791 | 34092 ft | 478 kts | 30° |
| 2026-04-07 16:04 | 46.21644 | -2.12246 | 34095 ft | 478 kts | 30° |
| 2026-04-07 16:04 | 46.27493 | -2.07693 | 34096 ft | 477 kts | 30° |
| 2026-04-07 16:05 | 46.33340 | -2.03133 | 34096 ft | 477 kts | 30° |
| 2026-04-07 16:05 | 46.39186 | -1.98573 | 34093 ft | 477 kts | 29° |
| 2026-04-07 16:06 | 46.45006 | -1.93995 | 34107 ft | 475 kts | 30° |
| 2026-04-07 16:06 | 46.50811 | -1.89416 | 34106 ft | 474 kts | 30° |
| 2026-04-07 16:07 | 46.56610 | -1.84845 | 34105 ft | 474 kts | 29° |
| 2026-04-07 16:07 | 46.62353 | -1.80309 | 34112 ft | 473 kts | 29° |
| 2026-04-07 16:08 | 46.68127 | -1.75748 | 34114 ft | 472 kts | 29° |
| 2026-04-07 16:08 | 46.73891 | -1.71173 | 34114 ft | 472 kts | 29° |
| 2026-04-07 16:09 | 46.79651 | -1.66592 | 34111 ft | 471 kts | 30° |
| 2026-04-07 16:09 | 46.85402 | -1.61999 | 34106 ft | 471 kts | 30° |
| 2026-04-07 16:10 | 46.91144 | -1.57402 | 34109 ft | 470 kts | 30° |
| 2026-04-07 16:10 | 46.96876 | -1.52806 | 34102 ft | 469 kts | 30° |
| 2026-04-07 16:11 | 47.02602 | -1.48212 | 34093 ft | 469 kts | 30° |
| 2026-04-07 16:11 | 47.08325 | -1.43607 | 34087 ft | 469 kts | 30° |
| 2026-04-07 16:12 | 47.14045 | -1.38988 | 34106 ft | 469 kts | 30° |
| 2026-04-07 16:12 | 47.19761 | -1.34357 | 34098 ft | 469 kts | 30° |
| 2026-04-07 16:13 | 47.25478 | -1.29713 | 34094 ft | 469 kts | 30° |
| 2026-04-07 16:13 | 47.31197 | -1.25059 | 34089 ft | 470 kts | 30° |
| 2026-04-07 16:14 | 47.36910 | -1.20395 | 34086 ft | 469 kts | 30° |
| 2026-04-07 16:14 | 47.42616 | -1.15733 | 34091 ft | 469 kts | 30° |
| 2026-04-07 16:15 | 47.48317 | -1.11067 | 34090 ft | 468 kts | 30° |
| 2026-04-07 16:15 | 47.54009 | -1.06391 | 34089 ft | 468 kts | 30° |
| 2026-04-07 16:16 | 47.59697 | -1.01701 | 34090 ft | 468 kts | 30° |
| 2026-04-07 16:16 | 47.65345 | -0.97034 | 34093 ft | 468 kts | 30° |
| 2026-04-07 16:17 | 47.70988 | -0.92209 | 34092 ft | 468 kts | 36° |
| 2026-04-07 16:17 | 47.75704 | -0.85639 | 34094 ft | 466 kts | 53° |
| 2026-04-07 16:18 | 47.79643 | -0.78001 | 34102 ft | 465 kts | 53° |
| 2026-04-07 16:18 | 47.83581 | -0.70357 | 34102 ft | 465 kts | 53° |
| 2026-04-07 16:19 | 47.87517 | -0.62702 | 34102 ft | 466 kts | 54° |
| 2026-04-07 16:19 | 47.91445 | -0.55025 | 34103 ft | 466 kts | 54° |
| 2026-04-07 16:20 | 47.95372 | -0.47332 | 34107 ft | 466 kts | 53° |
| 2026-04-07 16:20 | 47.99292 | -0.39621 | 34110 ft | 466 kts | 54° |
| 2026-04-07 16:21 | 48.03210 | -0.31902 | 34113 ft | 467 kts | 54° |
| 2026-04-07 16:21 | 48.06967 | -0.24007 | 34109 ft | 466 kts | 62° |
| 2026-04-07 16:22 | 48.09761 | -0.15274 | 34117 ft | 466 kts | 66° |
| 2026-04-07 16:22 | 48.12519 | -0.06499 | 34121 ft | 466 kts | 66° |
| 2026-04-07 16:23 | 48.15271 | 0.02288 | 34125 ft | 466 kts | 65° |
| 2026-04-07 16:23 | 48.18022 | 0.11095 | 34122 ft | 467 kts | 65° |
| 2026-04-07 16:24 | 48.20765 | 0.19934 | 34127 ft | 468 kts | 66° |
| 2026-04-07 16:24 | 48.23505 | 0.28788 | 34134 ft | 468 kts | 66° |
| 2026-04-07 16:25 | 48.26248 | 0.37668 | 34135 ft | 469 kts | 66° |
| 2026-04-07 16:25 | 48.28990 | 0.46570 | 34138 ft | 470 kts | 66° |
| 2026-04-07 16:26 | 48.31712 | 0.55477 | 34152 ft | 469 kts | 66° |
| 2026-04-07 16:26 | 48.34412 | 0.64335 | 34152 ft | 469 kts | 66° |
| 2026-04-07 16:27 | 48.37133 | 0.73250 | 34162 ft | 469 kts | 66° |
| 2026-04-07 16:27 | 48.39833 | 0.82177 | 34164 ft | 469 kts | 67° |
| 2026-04-07 16:28 | 48.42527 | 0.91112 | 34148 ft | 469 kts | 67° |
| 2026-04-07 16:28 | 48.45218 | 1.00061 | 34144 ft | 469 kts | 67° |
| 2026-04-07 16:29 | 48.47902 | 1.09038 | 34147 ft | 470 kts | 67° |
| 2026-04-07 16:29 | 48.50581 | 1.18027 | 34153 ft | 470 kts | 67° |
| 2026-04-07 16:30 | 48.53264 | 1.27019 | 34152 ft | 470 kts | 67° |
| 2026-04-07 16:30 | 48.55941 | 1.36024 | 34139 ft | 471 kts | 68° |
| 2026-04-07 16:31 | 48.58619 | 1.45081 | 34144 ft | 473 kts | 68° |
| 2026-04-07 16:31 | 48.61286 | 1.54168 | 34147 ft | 473 kts | 68° |
| 2026-04-07 16:32 | 48.63948 | 1.63275 | 34152 ft | 474 kts | 68° |
| 2026-04-07 16:32 | 48.66440 | 1.72494 | 34157 ft | 473 kts | 72° |
| 2026-04-07 16:33 | 48.68638 | 1.81811 | 34158 ft | 473 kts | 73° |
| 2026-04-07 16:33 | 48.70807 | 1.91214 | 34173 ft | 473 kts | 73° |
| 2026-04-07 16:34 | 48.73042 | 2.00596 | 34181 ft | 474 kts | 72° |
| 2026-04-07 16:34 | 48.75303 | 2.09971 | 34179 ft | 473 kts | 73° |
| 2026-04-07 16:35 | 48.77253 | 2.19478 | 34167 ft | 472 kts | 77° |
| 2026-04-07 16:35 | 48.78882 | 2.29105 | 34180 ft | 471 kts | 78° |
| 2026-04-07 16:36 | 48.80495 | 2.38735 | 34180 ft | 471 kts | 77° |
| 2026-04-07 16:36 | 48.82192 | 2.48334 | 34180 ft | 471 kts | 77° |
| 2026-04-07 16:37 | 48.83920 | 2.57922 | 34183 ft | 471 kts | 77° |
| 2026-04-07 16:37 | 48.85627 | 2.67523 | 34196 ft | 471 kts | 77° |
| 2026-04-07 16:38 | 48.87311 | 2.77123 | 34206 ft | 470 kts | 77° |
| 2026-04-07 16:38 | 48.88981 | 2.86721 | 34212 ft | 470 kts | 77° |
| 2026-04-07 16:39 | 48.90639 | 2.96310 | 34213 ft | 469 kts | 77° |
| 2026-04-07 16:39 | 48.92297 | 3.05904 | 34215 ft | 469 kts | 77° |
| 2026-04-07 16:40 | 48.93952 | 3.15500 | 34210 ft | 469 kts | 77° |
| 2026-04-07 16:40 | 48.95582 | 3.25036 | 34216 ft | 469 kts | 77° |
| 2026-04-07 16:41 | 48.97217 | 3.34700 | 34217 ft | 468 kts | 77° |
| 2026-04-07 16:41 | 48.98827 | 3.44243 | 34217 ft | 469 kts | 77° |
| 2026-04-07 16:42 | 49.00439 | 3.53852 | 34209 ft | 468 kts | 77° |
| 2026-04-07 16:42 | 49.02047 | 3.63467 | 34223 ft | 468 kts | 77° |
| 2026-04-07 16:43 | 49.03643 | 3.73081 | 34206 ft | 468 kts | 77° |
| 2026-04-07 16:43 | 49.05236 | 3.82712 | 34212 ft | 469 kts | 77° |
| 2026-04-07 16:44 | 49.06823 | 3.92354 | 34215 ft | 469 kts | 77° |
| 2026-04-07 16:44 | 49.08393 | 4.02006 | 34209 ft | 469 kts | 77° |
| 2026-04-07 16:45 | 49.09960 | 4.11673 | 34213 ft | 469 kts | 77° |
| 2026-04-07 16:45 | 49.11518 | 4.21345 | 34215 ft | 469 kts | 77° |
| 2026-04-07 16:46 | 49.13068 | 4.31021 | 34217 ft | 469 kts | 78° |
| 2026-04-07 16:46 | 49.15064 | 4.40502 | 34227 ft | 471 kts | 68° |
| 2026-04-07 16:47 | 49.17160 | 4.48174 | 34218 ft | 471 kts | 68° |
| 2026-04-07 16:47 | 49.19663 | 4.57417 | 34227 ft | 470 kts | 68° |
| 2026-04-07 16:48 | 49.22152 | 4.66667 | 34237 ft | 470 kts | 68° |
| 2026-04-07 16:49 | 49.25885 | 4.80560 | 34237 ft | 471 kts | 69° |
| 2026-04-07 16:49 | 49.28362 | 4.89834 | 34237 ft | 471 kts | 68° |
| 2026-04-07 16:50 | 49.30839 | 4.99120 | 34239 ft | 471 kts | 68° |
| 2026-04-07 16:50 | 49.33284 | 5.08358 | 34239 ft | 471 kts | 69° |
| 2026-04-07 16:51 | 49.35736 | 5.17656 | 34249 ft | 471 kts | 69° |
| 2026-04-07 16:51 | 49.38184 | 5.26973 | 34249 ft | 471 kts | 69° |
| 2026-04-07 16:52 | 49.40625 | 5.36295 | 34247 ft | 471 kts | 68° |
| 2026-04-07 16:52 | 49.43060 | 5.45625 | 34254 ft | 471 kts | 68° |
| 2026-04-07 16:53 | 49.45490 | 5.54959 | 34252 ft | 471 kts | 68° |
| 2026-04-07 16:53 | 49.47907 | 5.64308 | 34255 ft | 471 kts | 68° |
| 2026-04-07 16:54 | 49.50307 | 5.73674 | 34263 ft | 471 kts | 69° |
| 2026-04-07 16:54 | 49.52978 | 5.82853 | 34261 ft | 470 kts | 63° |
| 2026-04-07 16:54 | 49.54448 | 5.87357 | 34088 ft | 472 kts | 63° |
| 2026-04-07 16:55 | 49.55918 | 5.91870 | 33402 ft | 471 kts | 63° |
| 2026-04-07 16:55 | 49.57381 | 5.96371 | 32732 ft | 468 kts | 63° |
| 2026-04-07 16:55 | 49.58832 | 6.00843 | 32079 ft | 466 kts | 63° |
| 2026-04-07 16:55 | 49.60270 | 6.05294 | 31454 ft | 464 kts | 63° |
| 2026-04-07 16:56 | 49.61707 | 6.09754 | 30843 ft | 462 kts | 62° |
| 2026-04-07 16:56 | 49.63132 | 6.14190 | 30226 ft | 461 kts | 62° |
| 2026-04-07 16:56 | 49.64552 | 6.18618 | 29514 ft | 461 kts | 62° |
| 2026-04-07 16:56 | 49.65975 | 6.23050 | 28811 ft | 461 kts | 62° |
| 2026-04-07 16:57 | 49.67395 | 6.27486 | 28140 ft | 460 kts | 62° |
| 2026-04-07 16:57 | 49.68785 | 6.31845 | 27499 ft | 457 kts | 62° |
| 2026-04-07 16:57 | 49.70177 | 6.36234 | 26867 ft | 453 kts | 62° |
| 2026-04-07 16:57 | 49.71549 | 6.40571 | 26397 ft | 447 kts | 62° |
| 2026-04-07 16:58 | 49.72905 | 6.44866 | 25897 ft | 443 kts | 62° |
| 2026-04-07 16:58 | 49.74268 | 6.49185 | 25405 ft | 439 kts | 62° |
| 2026-04-07 16:58 | 49.75584 | 6.53345 | 24934 ft | 435 kts | 62° |
| 2026-04-07 16:58 | 49.76916 | 6.57533 | 24457 ft | 432 kts | 62° |
| 2026-04-07 16:59 | 49.78235 | 6.61691 | 23987 ft | 429 kts | 62° |
| 2026-04-07 16:59 | 49.79541 | 6.65833 | 23483 ft | 426 kts | 62° |
| 2026-04-07 16:59 | 49.80834 | 6.69946 | 22937 ft | 423 kts | 62° |
| 2026-04-07 16:59 | 49.82118 | 6.74031 | 22402 ft | 420 kts | 62° |
| 2026-04-07 17:00 | 49.83388 | 6.78084 | 21881 ft | 417 kts | 62° |
| 2026-04-07 17:00 | 49.84646 | 6.82117 | 21377 ft | 414 kts | 62° |
| 2026-04-07 17:00 | 49.85891 | 6.86112 | 20875 ft | 410 kts | 62° |
| 2026-04-07 17:00 | 49.87127 | 6.90076 | 20378 ft | 407 kts | 62° |
| 2026-04-07 17:01 | 49.88352 | 6.94009 | 19916 ft | 404 kts | 62° |
| 2026-04-07 17:01 | 49.89565 | 6.97915 | 19437 ft | 401 kts | 62° |
| 2026-04-07 17:01 | 49.90769 | 7.01796 | 18959 ft | 398 kts | 62° |
| 2026-04-07 17:01 | 49.91963 | 7.05649 | 18502 ft | 395 kts | 62° |
| 2026-04-07 17:02 | 49.93149 | 7.09479 | 17969 ft | 392 kts | 62° |
| 2026-04-07 17:02 | 49.94322 | 7.13272 | 17451 ft | 388 kts | 62° |
| 2026-04-07 17:02 | 49.95486 | 7.17041 | 16927 ft | 385 kts | 62° |
| 2026-04-07 17:02 | 49.96639 | 7.20777 | 16417 ft | 382 kts | 62° |
| 2026-04-07 17:03 | 49.97686 | 7.24546 | 15943 ft | 380 kts | 71° |
| 2026-04-07 17:03 | 49.98070 | 7.28582 | 15480 ft | 379 kts | 89° |
| 2026-04-07 17:03 | 49.97945 | 7.32656 | 15003 ft | 376 kts | 91° |
| 2026-04-07 17:03 | 49.97789 | 7.36699 | 14518 ft | 374 kts | 91° |
| 2026-04-07 17:04 | 49.97622 | 7.40709 | 14053 ft | 370 kts | 91° |
| 2026-04-07 17:04 | 49.97453 | 7.44684 | 13543 ft | 367 kts | 91° |
| 2026-04-07 17:04 | 49.97286 | 7.48623 | 13101 ft | 362 kts | 91° |
| 2026-04-07 17:04 | 49.97125 | 7.52487 | 12721 ft | 356 kts | 91° |
| 2026-04-07 17:05 | 49.96967 | 7.56297 | 12340 ft | 350 kts | 91° |
| 2026-04-07 17:05 | 49.96813 | 7.60046 | 11965 ft | 345 kts | 91° |
| 2026-04-07 17:05 | 49.96664 | 7.63741 | 11595 ft | 340 kts | 91° |
| 2026-04-07 17:05 | 49.96514 | 7.67379 | 11317 ft | 333 kts | 91° |
| 2026-04-07 17:06 | 49.96362 | 7.70889 | 11286 ft | 317 kts | 92° |
| 2026-04-07 17:06 | 49.96216 | 7.74176 | 11296 ft | 301 kts | 91° |
| 2026-04-07 17:06 | 49.96073 | 7.77421 | 11073 ft | 295 kts | 91° |
| 2026-04-07 17:06 | 49.95938 | 7.80532 | 10613 ft | 292 kts | 91° |
| 2026-04-07 17:07 | 49.95804 | 7.83666 | 10073 ft | 290 kts | 91° |
| 2026-04-07 17:07 | 49.95671 | 7.86781 | 9490 ft | 288 kts | 91° |
| 2026-04-07 17:07 | 49.95537 | 7.89873 | 8945 ft | 285 kts | 91° |
| 2026-04-07 17:07 | 49.95405 | 7.92928 | 8416 ft | 282 kts | 91° |
| 2026-04-07 17:08 | 49.95272 | 7.95953 | 7887 ft | 279 kts | 92° |
| 2026-04-07 17:08 | 49.95137 | 7.98946 | 7379 ft | 276 kts | 92° |
| 2026-04-07 17:08 | 49.95002 | 8.01903 | 6871 ft | 273 kts | 92° |
| 2026-04-07 17:08 | 49.94868 | 8.04835 | 6356 ft | 270 kts | 92° |
| 2026-04-07 17:09 | 49.94734 | 8.07693 | 6048 ft | 259 kts | 92° |
| 2026-04-07 17:09 | 49.94608 | 8.10415 | 5796 ft | 247 kts | 92° |
| 2026-04-07 17:09 | 49.94490 | 8.13003 | 5577 ft | 233 kts | 92° |
| 2026-04-07 17:09 | 49.94376 | 8.15449 | 5327 ft | 223 kts | 92° |
| 2026-04-07 17:10 | 49.94331 | 8.17805 | 5119 ft | 214 kts | 81° |
| 2026-04-07 17:10 | 49.94689 | 8.19979 | 4857 ft | 202 kts | 70° |
| 2026-04-07 17:10 | 49.95159 | 8.21976 | 4580 ft | 192 kts | 68° |
| 2026-04-07 17:10 | 49.95619 | 8.23868 | 4317 ft | 183 kts | 68° |
| 2026-04-07 17:11 | 49.96066 | 8.25705 | 4084 ft | 182 kts | 68° |
| 2026-04-07 17:11 | 49.96511 | 8.27537 | 3844 ft | 180 kts | 68° |
| 2026-04-07 17:11 | 49.96953 | 8.29358 | 3602 ft | 180 kts | 68° |
| 2026-04-07 17:11 | 49.97392 | 8.31169 | 3360 ft | 179 kts | 68° |
| 2026-04-07 17:12 | 49.97829 | 8.32976 | 3120 ft | 178 kts | 68° |
| 2026-04-07 17:12 | 49.98262 | 8.34767 | 2877 ft | 175 kts | 68° |
| 2026-04-07 17:12 | 49.98678 | 8.36487 | 2645 ft | 169 kts | 68° |
| 2026-04-07 17:12 | 49.99089 | 8.38190 | 2420 ft | 164 kts | 68° |
| 2026-04-07 17:13 | 49.99486 | 8.39834 | 2196 ft | 161 kts | 68° |
| 2026-04-07 17:13 | 49.99876 | 8.41453 | 1978 ft | 158 kts | 68° |
| 2026-04-07 17:13 | 50.00252 | 8.43014 | 1796 ft | 149 kts | 68° |
| 2026-04-07 17:13 | 50.00605 | 8.44478 | 1585 ft | 142 kts | 68° |
| 2026-04-07 17:14 | 50.00947 | 8.45901 | 1389 ft | 139 kts | 68° |
| 2026-04-07 17:14 | 50.01287 | 8.47310 | 1196 ft | 139 kts | 68° |
| 2026-04-07 17:14 | 50.01627 | 8.48725 | 1013 ft | 140 kts | 67° |
| 2026-04-07 17:14 | 50.01968 | 8.50145 | 818 ft | 140 kts | 68° |
| 2026-04-07 17:15 | 50.02309 | 8.51561 | 629 ft | 140 kts | 68° |
| 2026-04-07 17:15 | 50.02648 | 8.52980 | 432 ft | 140 kts | 66° |
| 2026-04-07 17:15 | 50.02985 | 8.54367 | 334 ft | 128 kts | 69° |
| 2026-04-07 17:15 | 50.03239 | 8.55439 | 351 ft | 80 kts | 70° |
| 2026-04-07 17:16 | 50.03403 | 8.56130 | 354 ft | 62 kts | 69° |
| 2026-04-07 17:16 | 50.03544 | 8.56713 | 353 ft | 54 kts | 69° |
| 2026-04-07 17:16 | 50.03711 | 8.57095 | 362 ft | 37 kts | 40° |
| 2026-04-07 17:16 | 50.03878 | 8.57310 | 361 ft | 26 kts | 40° |
| 2026-04-07 17:17 | 50.03980 | 8.57513 | 368 ft | 23 kts | 68° |
| 2026-04-07 17:17 | 50.04034 | 8.57738 | 369 ft | 22 kts | 70° |
| 2026-04-07 17:17 | 50.04086 | 8.57956 | 370 ft | 21 kts | 70° |
| 2026-04-07 17:17 | 50.04136 | 8.58164 | 368 ft | 20 kts | 70° |
| 2026-04-07 17:18 | 50.04184 | 8.58363 | 375 ft | 19 kts | 69° |
| 2026-04-07 17:18 | 50.04232 | 8.58555 | 370 ft | 18 kts | 64° |
| 2026-04-07 17:18 | 50.04332 | 8.58625 | 369 ft | 16 kts | 6° |
| 2026-04-07 17:18 | 50.04437 | 8.58642 | 371 ft | 15 kts | 5° |
| 2026-04-07 17:19 | 50.04535 | 8.58621 | 371 ft | 14 kts | 342° |
| 2026-04-07 17:19 | 50.04629 | 8.58562 | 374 ft | 15 kts | 326° |
| 2026-04-07 17:19 | 50.04639 | 8.58426 | 371 ft | 13 kts | 252° |
| 2026-04-07 17:19 | 50.04609 | 8.58299 | 370 ft | 13 kts | 250° |
| 2026-04-07 17:20 | 50.04573 | 8.58151 | 364 ft | 13 kts | 249° |
| 2026-04-07 17:20 | 50.04574 | 8.58053 | 364 ft | 9 kts | 302° |
| 2026-04-07 17:20 | 50.04610 | 8.58016 | 359 ft | 2 kts | 338° |
| 2026-04-07 17:20 | 50.04624 | 8.58008 | 360 ft | 2 kts | 340° |
| 2026-04-07 17:21 | 50.04634 | 8.58002 | 362 ft | 1 kts | 340° |
| 2026-04-07 17:21 | 50.04659 | 8.57988 | 358 ft | 7 kts | 340° |
| 2026-04-07 17:21 | 50.04722 | 8.57951 | 364 ft | 13 kts | 339° |
| 2026-04-07 17:21 | 50.04818 | 8.57887 | 366 ft | 17 kts | 325° |
| 2026-04-07 17:22 | 50.04874 | 8.57742 | 361 ft | 14 kts | 293° |
| 2026-04-07 17:22 | 50.04911 | 8.57611 | 357 ft | 12 kts | 294° |
| 2026-04-07 17:22 | 50.04929 | 8.57508 | 356 ft | 8 kts | 254° |
| 2026-04-07 17:22 | 50.04903 | 8.57464 | 361 ft | 4 kts | 218° |
| 2026-04-07 17:23 | 50.04891 | 8.57449 | 358 ft | 1 kts | 217° |
| 2026-04-07 17:23 | 50.04886 | 8.57444 | 359 ft | 1 kts | 217° |
| 2026-04-07 17:23 | 50.04884 | 8.57442 | 359 ft | 0 kts | 217° |
| 2026-04-07 17:23 | 50.04884 | 8.57441 | 359 ft | 0 kts | 217° |